Weather at Braman Heliport [CLOSED]

Public forecast

Using degrees Fahrenheit for public forecast. Weather courtesy of forecast.io.

Closest aviation weather report (METAR) to Braman Heliport

Closest report is Palm Beach International Airport, 5.3 nm (9.8 km) SSW. Retrieved 2020/09/23 08:53 UTC (39 minutes ago):

KPBI 230853Z 06011KT 10SM BKN065 27/17 A2996 RMK AO2 SLP146 T02670167 56010

Closest aviation forecast (TAF) to Braman Heliport

Closest forecast is Palm Beach International Airport, 5.3 nm (9.8 km) SSW. Retrieved 2020/09/23 06:56 UTC (3 hours ago):

TAF KPBI 230549Z 2306/2406 07011KT P6SM SCT030 BKN050 BKN250 FM231600 09013G23KT P6SM SCT030 BKN050 BKN250 FM240000 09011KT P6SM SCT050 BKN250